Time;durP1;ratioP1;P1;durP2;ratioP2;P2;SDS_P1;SDS_P2;PMS_P1;PMS_P2;Temp;Humidity;BMP_temperature;BMP_pressure;BME280_temperature;BME280_humidity;BME280_pressure;Samples;Min_cycle;Max_cycle;Signal;HPM_P1;HPM_P2
2021/08/03 00:02:28;;;;;;;4.90;2.97;;;;;;;13.20;84.16;100304.56;10347827;28;20199;-74
2021/08/03 00:07:34;;;;;;;4.60;3.22;;;;;;;13.33;84.67;100311.47;10347153;28;20306;-74
2021/08/03 00:12:39;;;;;;;3.40;2.67;;;;;;;13.37;84.53;100305.69;10347839;28;20172;-74
2021/08/03 00:17:45;;;;;;;4.18;3.20;;;;;;;13.38;84.67;100307.38;10347108;28;20187;-74
2021/08/03 00:22:49;;;;;;;7.15;2.30;;;;;;;13.42;84.58;100316.91;10347564;28;20665;-73
2021/08/03 00:27:52;;;;;;;2.92;2.63;;;;;;;13.36;84.20;100311.22;10351315;28;20234;-74
2021/08/03 00:32:57;;;;;;;4.72;2.85;;;;;;;13.35;84.40;100312.19;10364839;28;20187;-72
2021/08/03 00:38:01;;;;;;;3.95;2.90;;;;;;;13.26;83.83;100312.06;10355111;28;20570;-74
2021/08/03 00:43:05;;;;;;;3.83;2.83;;;;;;;13.15;84.12;100300.59;10351903;28;20306;-74
2021/08/03 00:48:10;;;;;;;5.20;2.58;;;;;;;13.04;84.07;100301.56;10349775;28;20240;-75
2021/08/03 00:53:13;;;;;;;4.35;2.83;;;;;;;13.01;84.22;100301.88;10378869;23;20222;-71
2021/08/03 00:58:16;;;;;;;3.80;2.50;;;;;;;12.99;84.27;100302.00;10349827;28;20612;-73
2021/08/03 01:03:21;;;;;;;5.78;2.35;;;;;;;13.04;84.50;100299.72;10351511;28;20424;-71
2021/08/03 01:08:35;;;;;;;5.50;2.60;;;;;;;13.02;84.41;100296.31;10333848;28;20219;-71
2021/08/03 01:13:48;;;;;;;4.03;2.83;;;;;;;12.89;84.35;100302.97;10351589;28;20223;-73
2021/08/03 01:18:59;;;;;;;4.28;2.97;;;;;;;12.99;84.27;100296.59;10350910;28;20207;-73
2021/08/03 01:24:17;;;;;;;3.38;2.92;;;;;;;12.89;84.45;100303.88;10333009;28;20230;-73
2021/08/03 01:29:27;;;;;;;4.00;2.65;;;;;;;12.71;84.33;100294.75;10349804;28;20234;-73
2021/08/03 01:34:33;;;;;;;4.45;2.90;;;;;;;12.60;83.96;100298.44;10347968;28;20661;-71
2021/08/03 01:39:43;;;;;;;3.42;2.92;;;;;;;12.42;83.31;100303.63;10332106;28;20239;-71
2021/08/03 01:44:49;;;;;;;3.47;2.78;;;;;;;12.10;83.46;100309.19;10331263;28;20219;-73
2021/08/03 01:50:00;;;;;;;3.70;2.90;;;;;;;12.14;83.97;100308.75;10349431;28;20192;-71
2021/08/03 01:55:08;;;;;;;5.05;2.97;;;;;;;12.15;84.11;100306.94;10347419;28;20255;-73
2021/08/03 02:00:16;;;;;;;3.63;2.90;;;;;;;12.05;84.36;100311.44;10349115;28;20648;-73
2021/08/03 02:05:20;;;;;;;6.65;4.45;;;;;;;12.15;84.58;100302.41;10349921;28;20331;-73
2021/08/03 02:10:35;;;;;;;5.80;4.47;;;;;;;12.28;84.43;100306.69;10349074;28;20201;-73
2021/08/03 02:15:41;;;;;;;6.07;4.43;;;;;;;12.20;83.65;100309.22;10346646;28;20223;-71
2021/08/03 02:20:45;;;;;;;8.50;5.03;;;;;;;12.02;83.88;100314.41;10330761;28;20203;-74
2021/08/03 02:25:50;;;;;;;10.40;6.03;;;;;;;12.02;84.01;100309.88;10332285;28;20250;-73
2021/08/03 02:31:00;;;;;;;11.63;7.45;;;;;;;11.99;83.35;100310.16;10332865;28;20211;-73
2021/08/03 02:36:11;;;;;;;12.07;8.88;;;;;;;12.02;83.82;100317.09;10332474;28;20219;-73
2021/08/03 02:41:15;;;;;;;17.42;9.93;;;;;;;12.07;83.72;100320.25;10330449;28;20203;-73
2021/08/03 02:46:23;;;;;;;16.15;10.00;;;;;;;11.98;83.50;100326.41;10347304;28;20215;-73
2021/08/03 02:51:26;;;;;;;13.48;9.32;;;;;;;11.85;83.54;100324.81;10346361;28;20206;-73
2021/08/03 02:56:31;;;;;;;11.77;7.40;;;;;;;11.75;83.89;100315.81;10329828;28;20311;-73
2021/08/03 03:01:38;;;;;;;9.73;7.35;;;;;;;11.72;83.96;100316.09;10329750;28;20619;-73
2021/08/03 03:06:48;;;;;;;12.50;7.78;;;;;;;11.69;84.12;100321.75;10346591;28;20219;-73
2021/08/03 03:11:53;;;;;;;11.52;7.60;;;;;;;11.62;84.11;100316.03;10346829;28;20262;-72
2021/08/03 03:17:00;;;;;;;13.93;8.15;;;;;;;11.60;84.12;100309.97;10328337;28;20285;-72
2021/08/03 03:22:06;;;;;;;9.95;6.65;;;;;;;11.63;84.36;100317.75;10329292;28;20303;-70
2021/08/03 03:27:13;;;;;;;10.30;6.18;;;;;;;11.72;84.37;100319.63;10328181;28;20239;-72
2021/08/03 03:32:18;;;;;;;8.85;6.38;;;;;;;11.64;84.18;100318.59;10344940;28;20207;-72
2021/08/03 03:37:24;;;;;;;7.72;5.88;;;;;;;11.53;84.09;100313.31;10344177;28;20708;-70
2021/08/03 03:42:32;;;;;;;7.43;5.20;;;;;;;11.44;84.07;100314.94;10346285;28;20626;-72
2021/08/03 03:47:42;;;;;;;7.78;5.10;;;;;;;11.39;84.09;100318.03;10335281;28;20343;-73
2021/08/03 03:52:50;;;;;;;7.05;5.43;;;;;;;11.36;84.07;100309.38;10350272;28;20199;-71
2021/08/03 03:57:53;;;;;;;10.00;6.30;;;;;;;11.27;83.96;100309.19;10344692;28;20215;-71
2021/08/03 04:02:58;;;;;;;8.88;6.78;;;;;;;11.30;84.19;100307.19;10345779;28;20626;-72
2021/08/03 04:08:02;;;;;;;12.73;7.72;;;;;;;11.25;84.11;100316.50;10344461;28;20676;-73
2021/08/03 04:13:05;;;;;;;19.15;11.40;;;;;;;11.34;84.40;100308.66;10343051;28;20571;-72
2021/08/03 04:18:10;;;;;;;16.23;10.95;;;;;;;11.52;84.28;100316.97;10326839;28;20294;-72
2021/08/03 04:23:16;;;;;;;15.10;10.75;;;;;;;11.54;84.24;100306.94;10327195;28;20613;-71
2021/08/03 04:28:18;;;;;;;16.58;10.85;;;;;;;11.58;84.27;100317.31;10349164;28;20294;-73
2021/08/03 04:33:23;;;;;;;17.02;10.48;;;;;;;11.67;84.07;100313.81;10352008;28;20215;-72
2021/08/03 04:38:26;;;;;;;21.65;12.10;;;;;;;11.87;84.03;100314.75;10334597;28;20195;-73
2021/08/03 04:43:29;;;;;;;21.52;12.40;;;;;;;11.92;83.94;100314.34;10352498;28;20230;-73
2021/08/03 04:48:33;;;;;;;22.05;13.73;;;;;;;12.08;83.92;100322.78;10351813;28;20273;-73
2021/08/03 04:53:36;;;;;;;23.27;13.90;;;;;;;12.11;83.26;100318.97;10351632;28;20250;-73
2021/08/03 04:58:41;;;;;;;25.65;15.27;;;;;;;12.24;83.77;100310.66;10351550;28;20191;-73
2021/08/03 05:03:45;;;;;;;28.63;17.15;;;;;;;12.38;83.80;100310.31;10351682;28;20633;-73
2021/08/03 05:08:48;;;;;;;27.08;16.15;;;;;;;12.49;83.58;100320.97;10350862;28;20215;-73
2021/08/03 05:13:51;;;;;;;27.08;17.50;;;;;;;12.69;83.40;100329.06;10333310;28;20261;-73
2021/08/03 05:18:55;;;;;;;27.55;17.17;;;;;;;12.82;83.42;100314.34;10350530;28;20223;-73
2021/08/03 05:23:58;;;;;;;25.90;16.70;;;;;;;12.98;83.41;100315.63;10350705;28;20221;-72
2021/08/03 05:29:02;;;;;;;29.23;16.75;;;;;;;13.13;83.27;100324.13;10350299;28;20222;-72
2021/08/03 05:34:06;;;;;;;26.63;18.13;;;;;;;13.27;82.83;100329.09;10349589;28;20218;-73
2021/08/03 05:39:11;;;;;;;37.03;19.88;;;;;;;13.48;82.62;100329.81;10349828;28;20187;-73
2021/08/03 05:44:17;;;;;;;33.38;21.10;;;;;;;13.51;81.81;100328.69;10349430;28;20215;-72
2021/08/03 05:49:24;;;;;;;33.08;19.92;;;;;;;13.69;82.64;100326.94;10349964;28;20219;-73
2021/08/03 05:54:27;;;;;;;30.02;20.08;;;;;;;13.91;82.31;100323.03;10349676;28;20225;-70
2021/08/03 05:59:30;;;;;;;30.08;18.65;;;;;;;14.11;81.76;100322.97;10349863;28;20192;-70
2021/08/03 06:04:34;;;;;;;29.98;19.27;;;;;;;14.12;80.50;100321.94;10349190;28;20207;-70
2021/08/03 06:09:38;;;;;;;32.13;19.25;;;;;;;14.26;80.24;100312.50;10349613;28;20227;-72
2021/08/03 06:14:42;;;;;;;33.05;20.27;;;;;;;14.68;81.95;100315.56;10349114;28;20242;-70
2021/08/03 06:19:49;;;;;;;31.85;20.45;;;;;;;14.87;79.97;100319.97;10332222;28;20294;-73
2021/08/03 06:24:52;;;;;;;37.58;22.92;;;;;;;14.98;78.52;100313.50;10349389;28;20215;-73
2021/08/03 06:29:55;;;;;;;37.05;23.65;;;;;;;14.99;78.01;100298.97;10349800;28;20215;-73
2021/08/03 06:34:59;;;;;;;34.28;22.33;;;;;;;15.03;77.38;100309.31;10349286;28;20222;-73
2021/08/03 06:40:03;;;;;;;33.42;22.45;;;;;;;15.27;78.39;100313.22;10349367;28;20200;-73
2021/08/03 06:45:08;;;;;;;33.13;21.65;;;;;;;15.39;77.42;100309.31;10348766;28;20219;-73
2021/08/03 06:50:15;;;;;;;35.38;22.30;;;;;;;15.55;75.46;100307.72;10346918;28;20222;-73
2021/08/03 06:55:24;;;;;;;14.10;10.02;;;;;;;15.54;74.00;100303.31;10373772;23;20311;-74
2021/08/03 07:00:27;;;;;;;24.33;16.40;;;;;;;15.81;74.36;100302.31;10312893;28;20180;-74
2021/08/03 07:05:34;;;;;;;22.60;12.23;;;;;;;16.34;73.94;100303.94;10311179;28;20262;-74
2021/08/03 07:10:37;;;;;;;26.15;16.48;;;;;;;16.88;69.95;100306.28;10310446;28;20263;-75
2021/08/03 07:15:41;;;;;;;21.85;14.38;;;;;;;17.23;68.22;100303.28;10310798;28;20226;-74
2021/08/03 07:20:45;;;;;;;24.42;17.10;;;;;;;16.89;66.24;100295.25;10310229;28;20200;-74
2021/08/03 07:25:50;;;;;;;27.80;18.52;;;;;;;17.25;68.89;100305.81;10311340;28;20220;-75
2021/08/03 07:30:53;;;;;;;26.17;17.33;;;;;;;17.47;64.17;100302.44;10311059;28;20226;-74
2021/08/03 07:35:57;;;;;;;24.02;15.45;;;;;;;17.52;65.61;100293.75;10309000;28;20235;-76
2021/08/03 07:41:00;;;;;;;27.08;17.92;;;;;;;17.85;65.50;100296.41;10309757;28;20230;-75
2021/08/03 07:46:04;;;;;;;25.98;16.23;;;;;;;17.83;62.10;100303.91;10310784;28;20228;-74
2021/08/03 07:51:08;;;;;;;27.38;16.30;;;;;;;17.84;62.17;100300.16;10310191;28;20219;-74
2021/08/03 07:56:12;;;;;;;25.73;16.60;;;;;;;18.06;61.75;100288.56;10309641;28;20231;-74
2021/08/03 08:01:17;;;;;;;23.25;16.27;;;;;;;18.36;60.82;100288.78;10309677;28;20188;-76
2021/08/03 08:06:22;;;;;;;23.85;17.05;;;;;;;18.34;59.04;100290.81;10292030;28;20231;-75
2021/08/03 08:11:25;;;;;;;25.88;17.80;;;;;;;18.41;59.18;100289.09;10310023;28;20218;-75
2021/08/03 08:16:28;;;;;;;25.77;15.60;;;;;;;18.85;58.20;100284.94;10308323;28;20211;-75
2021/08/03 08:21:33;;;;;;;20.17;14.05;;;;;;;19.24;57.02;100284.81;10291182;28;20222;-74
2021/08/03 08:26:36;;;;;;;19.83;13.18;;;;;;;18.88;55.63;100285.44;10308545;28;20751;-75
2021/08/03 08:31:39;;;;;;;16.20;11.18;;;;;;;18.74;54.67;100275.28;10309025;28;20243;-75
2021/08/03 08:36:44;;;;;;;16.85;12.18;;;;;;;20.06;55.47;100273.06;10307548;28;20223;-74
2021/08/03 08:41:47;;;;;;;17.27;11.70;;;;;;;20.86;51.46;100277.63;10307596;28;20616;-74
2021/08/03 08:46:52;;;;;;;15.63;11.90;;;;;;;21.56;49.64;100261.44;10306468;28;20212;-75
2021/08/03 08:51:57;;;;;;;11.85;9.20;;;;;;;21.30;47.90;100262.91;10290242;28;20530;-74
2021/08/03 08:57:00;;;;;;;9.35;7.93;;;;;;;20.75;49.28;100256.28;10307271;28;20254;-74
2021/08/03 09:02:03;;;;;;;7.90;4.95;;;;;;;21.32;47.96;100254.53;10307570;28;20592;-74
2021/08/03 09:07:08;;;;;;;8.50;6.32;;;;;;;21.88;45.27;100249.88;10306898;28;20271;-75
2021/08/03 09:12:13;;;;;;;9.07;7.05;;;;;;;21.23;46.90;100254.69;10292038;28;20299;-74
2021/08/03 09:17:27;;;;;;;10.18;7.47;;;;;;;20.67;49.87;100240.88;10313567;28;20219;-74
2021/08/03 09:22:31;;;;;;;9.38;6.85;;;;;;;20.51;49.74;100238.41;10296501;28;20204;-74
2021/08/03 09:27:37;;;;;;;6.28;5.63;;;;;;;20.30;49.75;100237.31;10313355;28;20243;-75
2021/08/03 09:32:40;;;;;;;10.20;8.07;;;;;;;20.04;49.76;100240.53;10313838;28;20231;-74
2021/08/03 09:37:46;;;;;;;12.40;9.20;;;;;;;20.45;48.21;100233.72;10313328;28;20224;-75
2021/08/03 09:43:01;;;;;;;11.98;8.80;;;;;;;20.77;49.20;100243.31;10314347;28;20189;-74
2021/08/03 09:48:12;;;;;;;13.45;9.20;;;;;;;20.78;47.09;100234.06;10313541;28;20212;-74
2021/08/03 09:53:35;;;;;;;10.57;9.10;;;;;;;19.53;49.24;100240.44;10314239;28;20453;-75
2021/08/03 09:58:52;;;;;;;16.60;9.27;;;;;;;19.40;49.93;100234.78;10324003;28;20206;-75
2021/08/03 10:03:56;;;;;;;11.88;9.23;;;;;;;19.60;51.19;100232.38;10301402;28;20223;-75
2021/08/03 10:09:02;;;;;;;10.48;9.13;;;;;;;20.30;50.55;100229.13;10316953;28;20208;-75
2021/08/03 10:14:06;;;;;;;10.13;8.30;;;;;;;21.04;48.73;100214.41;10298844;28;20271;-76
2021/08/03 10:19:09;;;;;;;9.98;8.00;;;;;;;22.25;46.50;100205.88;10316102;28;20188;-75
2021/08/03 10:24:17;;;;;;;14.20;7.85;;;;;;;23.39;42.54;100210.47;10296956;28;20246;-74
2021/08/03 10:29:22;;;;;;;3.75;3.05;;;;;;;23.26;39.27;100205.00;10316231;28;20477;-74
2021/08/03 10:35:00;;;;;;;5.20;3.05;;;;;;;22.25;41.56;100212.19;10315910;28;20231;-76
2021/08/03 10:40:05;;;;;;;4.63;2.90;;;;;;;21.91;41.26;100202.16;10298837;28;20204;-75
2021/08/03 10:45:17;;;;;;;5.22;3.25;;;;;;;21.10;42.14;100210.03;10313069;28;20231;-75
2021/08/03 10:50:32;;;;;;;7.05;3.45;;;;;;;20.19;44.23;100201.53;10312534;28;20239;-76
2021/08/03 10:55:39;;;;;;;2.95;2.65;;;;;;;20.15;44.89;100203.75;10295593;28;20662;-75
2021/08/03 11:00:42;;;;;;;8.40;5.18;;;;;;;20.43;47.68;100201.19;10313407;28;20665;-75
2021/08/03 11:05:46;;;;;;;9.55;6.88;;;;;;;20.39;49.71;100197.16;10312398;28;20220;-77
2021/08/03 11:11:05;;;;;;;9.20;6.82;;;;;;;20.23;49.36;100195.47;10311899;28;20227;-76
2021/08/03 11:16:46;;;;;;;7.45;6.57;;;;;;;20.01;49.84;100191.00;10295243;28;20232;-75
2021/08/03 11:21:50;;;;;;;11.70;7.35;;;;;;;19.82;50.94;100204.19;10309688;28;20208;-75
2021/08/03 11:26:56;;;;;;;9.50;6.78;;;;;;;19.87;51.72;100192.72;10309261;28;20214;-75
2021/08/03 11:32:02;;;;;;;12.55;7.47;;;;;;;19.76;51.03;100202.22;10292324;28;20316;-75
2021/08/03 11:37:23;;;;;;;9.90;7.15;;;;;;;19.75;50.45;100197.81;10309531;28;20211;-76
2021/08/03 11:42:38;;;;;;;8.68;5.55;;;;;;;19.99;50.60;100183.00;10310503;28;20633;-75
2021/08/03 11:47:46;;;;;;;8.57;5.57;;;;;;;20.02;49.94;100182.66;10309588;28;20208;-74
2021/08/03 11:52:48;;;;;;;9.82;6.03;;;;;;;19.78;51.09;100182.97;10310162;28;20186;-75
2021/08/03 11:57:53;;;;;;;5.18;4.50;;;;;;;19.63;50.28;100182.97;10309491;28;20226;-75
2021/08/03 12:02:57;;;;;;;5.25;3.80;;;;;;;19.37;51.66;100183.41;10309458;28;20298;-75
2021/08/03 12:08:04;;;;;;;5.43;3.35;;;;;;;19.29;51.77;100178.06;10308926;28;20239;-74
2021/08/03 12:13:10;;;;;;;8.10;4.03;;;;;;;19.55;52.54;100175.69;10309993;28;20669;-74
2021/08/03 12:18:13;;;;;;;4.18;3.72;;;;;;;18.93;64.38;100176.88;10307922;28;20212;-74
2021/08/03 12:23:22;;;;;;;6.40;4.18;;;;;;;18.53;72.23;100176.13;10308828;28;20242;-75
2021/08/03 12:28:37;;;;;;;8.52;4.35;;;;;;;18.63;73.30;100161.47;10306652;28;20212;-75
2021/08/03 12:33:40;;;;;;;5.90;4.05;;;;;;;19.22;72.39;100159.72;10291285;28;20670;-77
2021/08/03 12:39:02;;;;;;;7.00;4.60;;;;;;;19.97;69.76;100166.03;10307649;28;20198;-75
2021/08/03 12:44:06;;;;;;;4.82;4.30;;;;;;;20.72;68.09;100153.81;10307398;28;20723;-76
2021/08/03 12:49:09;;;;;;;4.82;3.88;;;;;;;21.37;69.00;100150.97;10312400;28;20299;-75
2021/08/03 12:54:14;;;;;;;5.82;4.25;;;;;;;21.67;60.84;100148.84;10322486;23;20234;-72
2021/08/03 13:04:47;;;;;;;4.30;3.45;;;;;;;22.84;47.70;100127.66;8968568;32;20569;-72
2021/08/03 13:09:49;;;;;;;6.28;3.50;;;;;;;23.75;44.66;100135.06;10503646;28;20181;-72
2021/08/03 13:14:52;;;;;;;4.45;3.58;;;;;;;22.96;45.99;100136.94;10502855;28;20213;-72
2021/08/03 13:19:56;;;;;;;6.70;3.55;;;;;;;22.42;48.11;100138.78;10502994;28;20184;-72
2021/08/03 13:25:00;;;;;;;3.95;3.30;;;;;;;21.94;48.88;100138.03;10502392;28;20637;-72
2021/08/03 13:30:05;;;;;;;4.88;3.53;;;;;;;20.83;49.81;100140.69;10502763;28;20196;-72
2021/08/03 13:35:10;;;;;;;6.70;3.90;;;;;;;20.57;51.23;100139.44;10502095;28;20657;-72
2021/08/03 13:40:14;;;;;;;3.45;3.00;;;;;;;20.38;52.09;100134.59;10502448;28;20213;-73
2021/08/03 13:45:17;;;;;;;5.65;3.13;;;;;;;19.95;51.92;100135.38;10501815;28;20235;-72
2021/08/03 13:50:21;;;;;;;5.13;3.50;;;;;;;19.53;53.08;100130.59;10517724;28;20219;-72
2021/08/03 13:55:24;;;;;;;4.97;3.13;;;;;;;19.19;54.09;100127.41;10501511;28;20213;-72
2021/08/03 14:00:27;;;;;;;5.00;3.45;;;;;;;18.96;54.89;100129.38;10500261;28;20269;-72
2021/08/03 14:05:31;;;;;;;4.22;3.65;;;;;;;18.94;55.49;100128.72;10501290;28;20217;-72
2021/08/03 14:10:34;;;;;;;5.82;3.60;;;;;;;19.08;55.22;100124.31;10501543;28;20238;-72
2021/08/03 14:15:37;;;;;;;3.92;3.35;;;;;;;19.35;54.93;100129.13;10475491;28;20205;-72
2021/08/03 14:20:42;;;;;;;4.18;3.63;;;;;;;19.53;54.24;100122.44;10473163;28;20626;-72
2021/08/03 14:25:47;;;;;;;4.78;3.35;;;;;;;19.83;53.98;100121.41;10473935;28;20689;-73
2021/08/03 14:30:50;;;;;;;5.05;3.30;;;;;;;20.26;52.38;100118.72;10476350;28;20197;-75
2021/08/03 14:35:55;;;;;;;3.30;3.00;;;;;;;20.62;51.85;100117.00;10478610;28;20552;-73
2021/08/03 14:40:58;;;;;;;6.65;3.40;;;;;;;20.91;50.86;100118.69;10479735;28;20220;-74
2021/08/03 14:46:01;;;;;;;4.60;3.30;;;;;;;21.28;49.67;100109.28;10474847;28;20680;-72
2021/08/03 14:51:08;;;;;;;5.05;3.45;;;;;;;21.96;48.76;100103.94;10472235;28;20197;-72
2021/08/03 14:56:10;;;;;;;3.65;3.15;;;;;;;21.89;48.05;100098.47;10471463;28;20206;-72
2021/08/03 15:01:13;;;;;;;4.65;3.38;;;;;;;21.67;48.46;100096.91;10472122;28;20217;-72
2021/08/03 15:06:18;;;;;;;4.43;3.25;;;;;;;21.64;46.97;100089.13;10472724;28;20213;-72
2021/08/03 15:11:23;;;;;;;4.32;3.40;;;;;;;21.32;49.07;100093.38;10472025;28;20646;-72
2021/08/03 15:16:25;;;;;;;7.13;3.30;;;;;;;20.90;49.82;100090.56;10471092;28;20205;-72
2021/08/03 15:21:30;;;;;;;7.35;3.88;;;;;;;20.40;51.43;100088.88;10471190;28;20240;-72
2021/08/03 15:26:32;;;;;;;4.15;3.22;;;;;;;20.00;51.76;100089.31;10468407;28;20217;-72
2021/08/03 15:31:35;;;;;;;4.57;3.40;;;;;;;19.71;51.81;100094.84;10471185;28;20190;-72
2021/08/03 15:36:40;;;;;;;6.95;3.10;;;;;;;19.55;52.53;100091.25;10471247;28;20221;-72
2021/08/03 15:41:43;;;;;;;3.35;3.05;;;;;;;19.34;52.97;100091.22;10470582;28;20216;-72
2021/08/03 15:46:46;;;;;;;3.75;3.05;;;;;;;19.18;53.10;100086.78;10470406;28;20827;-73
2021/08/03 15:51:51;;;;;;;4.22;3.33;;;;;;;19.12;53.11;100095.72;10470803;28;20189;-72
2021/08/03 15:56:53;;;;;;;4.47;3.35;;;;;;;19.05;53.61;100094.75;10470597;28;20217;-72
2021/08/03 16:01:56;;;;;;;4.22;2.75;;;;;;;19.01;53.82;100089.69;10469754;28;20217;-72
2021/08/03 16:07:01;;;;;;;5.53;3.25;;;;;;;19.00;53.48;100090.72;10469520;28;20209;-73
2021/08/03 16:12:05;;;;;;;4.00;2.63;;;;;;;18.97;53.54;100087.53;10469894;28;20215;-72
2021/08/03 16:17:08;;;;;;;4.15;3.47;;;;;;;18.96;53.58;100080.41;10469254;28;20334;-72
2021/08/03 16:22:15;;;;;;;5.10;3.47;;;;;;;18.93;54.06;100084.34;10469618;28;20217;-72
2021/08/03 16:27:17;;;;;;;5.75;2.67;;;;;;;18.93;54.93;100078.91;10468863;28;20236;-73
2021/08/03 16:32:23;;;;;;;3.70;2.85;;;;;;;18.89;54.04;100071.28;10468746;28;20339;-72
2021/08/03 16:37:31;;;;;;;4.95;3.15;;;;;;;18.88;54.38;100075.88;10468105;28;20213;-72
2021/08/03 16:42:34;;;;;;;5.18;3.22;;;;;;;18.90;54.19;100073.00;10467451;28;20213;-72
2021/08/03 16:47:37;;;;;;;4.07;3.42;;;;;;;18.87;54.18;100078.78;10466794;28;20221;-73
2021/08/03 16:52:42;;;;;;;4.07;3.50;;;;;;;18.77;54.45;100068.16;10468564;28;20190;-72
2021/08/03 16:57:45;;;;;;;3.92;3.13;;;;;;;18.62;55.24;100067.25;10466404;28;20271;-73
2021/08/03 17:03:07;;;;;;;3.80;2.85;;;;;;;18.41;58.09;100070.72;10468127;28;20568;-73
2021/08/03 17:08:19;;;;;;;5.55;2.97;;;;;;;17.82;62.25;100072.09;10467489;28;20209;-72
2021/08/03 17:13:25;;;;;;;4.75;2.92;;;;;;;17.53;63.24;100070.06;10468568;28;20314;-72
2021/08/03 17:18:32;;;;;;;8.13;3.28;;;;;;;17.43;62.95;100078.41;10467313;28;20217;-72
2021/08/03 17:23:42;;;;;;;4.72;3.20;;;;;;;17.49;63.59;100076.88;10466490;28;20677;-72
2021/08/03 17:28:47;;;;;;;4.43;3.40;;;;;;;17.55;63.23;100073.47;10466849;28;20213;-72
2021/08/03 17:33:50;;;;;;;6.03;3.70;;;;;;;17.72;62.62;100090.53;10465766;28;20228;-72
2021/08/03 17:38:54;;;;;;;4.97;3.22;;;;;;;17.82;61.72;100087.56;10466992;28;20269;-72
2021/08/03 17:43:58;;;;;;;3.33;3.03;;;;;;;17.65;62.42;100092.25;10467087;28;20213;-72
2021/08/03 17:49:09;;;;;;;3.60;3.10;;;;;;;17.32;68.05;100094.25;10470776;28;20600;-72
2021/08/03 17:54:16;;;;;;;3.95;3.35;;;;;;;17.00;70.68;100094.16;10473716;28;20669;-72
2021/08/03 17:59:22;;;;;;;4.38;3.40;;;;;;;16.83;69.98;100094.34;10473917;28;20204;-72
2021/08/03 18:04:26;;;;;;;4.72;3.75;;;;;;;16.76;70.11;100108.63;10473371;28;20704;-72
2021/08/03 18:09:32;;;;;;;5.68;3.85;;;;;;;16.74;70.28;100115.22;10473852;28;20185;-73
2021/08/03 18:14:36;;;;;;;4.60;3.80;;;;;;;16.73;70.08;100113.50;10473075;28;20570;-73
2021/08/03 18:19:39;;;;;;;5.20;3.65;;;;;;;16.71;68.68;100110.16;10473356;28;20200;-73
2021/08/03 18:24:43;;;;;;;5.88;3.92;;;;;;;16.75;68.79;100108.78;10472641;28;20263;-73
2021/08/03 18:29:51;;;;;;;3.88;3.47;;;;;;;16.73;67.70;100110.78;10473304;28;20235;-73
2021/08/03 18:35:04;;;;;;;5.65;3.83;;;;;;;16.73;66.07;100118.94;10471894;28;20209;-73
2021/08/03 18:40:12;;;;;;;5.05;3.30;;;;;;;16.75;65.71;100115.03;10472977;28;20194;-73
2021/08/03 18:45:16;;;;;;;3.85;3.33;;;;;;;16.73;65.98;100118.94;10472309;28;20229;-73
2021/08/03 18:50:18;;;;;;;4.22;3.83;;;;;;;16.73;64.71;100116.22;10472271;28;20546;-73
2021/08/03 18:55:23;;;;;;;7.63;3.80;;;;;;;16.72;64.14;100123.50;10479496;22;20226;-74
2021/08/03 19:00:25;;;;;;;5.28;3.65;;;;;;;16.73;63.44;100129.78;10389517;28;20613;-75
2021/08/03 19:05:34;;;;;;;5.50;3.50;;;;;;;16.72;63.18;100137.06;10390323;28;20219;-74
2021/08/03 19:10:38;;;;;;;4.32;3.75;;;;;;;16.73;62.83;100146.06;10390686;28;20195;-75
2021/08/03 19:15:47;;;;;;;4.95;3.92;;;;;;;16.59;61.28;100148.47;10390132;28;20257;-74
2021/08/03 19:20:50;;;;;;;5.13;3.53;;;;;;;16.25;63.22;100155.84;10390437;28;20183;-75
2021/08/03 19:25:54;;;;;;;4.78;3.85;;;;;;;15.96;66.09;100159.81;10389671;28;20225;-74
2021/08/03 19:30:59;;;;;;;5.45;4.05;;;;;;;15.94;67.09;100161.88;10390122;28;20195;-75
2021/08/03 19:36:04;;;;;;;4.25;3.85;;;;;;;15.94;67.15;100159.16;10390113;28;20211;-74
2021/08/03 19:41:08;;;;;;;5.78;3.90;;;;;;;15.87;67.82;100169.78;10390057;28;20236;-75
2021/08/03 19:46:12;;;;;;;8.05;4.53;;;;;;;15.84;67.99;100162.00;10388983;28;20276;-75
2021/08/03 19:51:17;;;;;;;4.85;4.40;;;;;;;15.86;67.54;100172.69;10389173;28;20241;-75
2021/08/03 19:56:25;;;;;;;5.85;4.35;;;;;;;15.85;67.09;100173.66;10235174;28;20313;-74
2021/08/03 20:01:28;;;;;;;7.50;4.65;;;;;;;15.86;66.92;100180.81;10348422;28;20196;-75
2021/08/03 20:06:36;;;;;;;8.68;5.03;;;;;;;15.79;66.52;100177.88;10347653;28;20370;-74
2021/08/03 20:11:44;;;;;;;6.47;4.88;;;;;;;15.75;67.04;100175.69;10347374;28;20559;-75
2021/08/03 20:16:48;;;;;;;5.55;4.35;;;;;;;15.71;66.44;100180.56;10347711;28;20241;-75
2021/08/03 20:21:51;;;;;;;7.55;5.65;;;;;;;15.69;66.26;100183.44;10347904;28;20195;-75
2021/08/03 20:26:56;;;;;;;7.15;5.43;;;;;;;15.63;65.70;100175.97;10347554;28;20227;-75
2021/08/03 20:32:04;;;;;;;6.95;4.95;;;;;;;15.68;65.79;100173.59;10347794;28;20793;-75
2021/08/03 20:37:11;;;;;;;7.07;4.68;;;;;;;15.67;66.24;100177.34;10346857;28;20219;-75
2021/08/03 20:42:15;;;;;;;7.20;5.13;;;;;;;15.68;66.49;100180.88;10347268;28;20218;-75
2021/08/03 20:47:19;;;;;;;7.13;4.80;;;;;;;15.66;66.44;100181.06;10347017;28;20219;-76
2021/08/03 20:52:22;;;;;;;8.02;5.70;;;;;;;15.61;66.65;100177.16;10347030;28;20195;-75
2021/08/03 20:57:28;;;;;;;7.75;6.15;;;;;;;15.58;67.01;100183.72;10346446;28;20227;-75
2021/08/03 21:02:35;;;;;;;9.60;5.97;;;;;;;15.56;66.96;100183.03;10346906;28;20241;-75
2021/08/03 21:07:40;;;;;;;7.78;5.38;;;;;;;15.56;67.10;100185.75;10328905;28;20223;-75
2021/08/03 21:12:44;;;;;;;8.82;5.15;;;;;;;15.56;67.30;100185.75;10346780;28;20195;-75
2021/08/03 21:17:50;;;;;;;8.27;5.72;;;;;;;15.58;66.91;100194.56;10346653;28;20215;-75
2021/08/03 21:23:12;;;;;;;6.65;5.55;;;;;;;15.41;66.73;100196.34;10349170;28;20316;-75
2021/08/03 21:28:34;;;;;;;7.97;6.03;;;;;;;15.41;67.10;100190.91;10353430;28;20223;-75
2021/08/03 21:33:55;;;;;;;9.05;5.78;;;;;;;15.44;67.28;100192.44;10354063;28;20656;-75
2021/08/03 21:39:17;;;;;;;7.32;5.70;;;;;;;15.43;66.92;100202.41;10354513;28;20180;-74
2021/08/03 21:44:40;;;;;;;8.07;5.65;;;;;;;15.44;66.90;100196.00;10352920;28;20714;-75
2021/08/03 21:50:02;;;;;;;8.88;5.65;;;;;;;15.46;67.22;100198.53;10353931;28;20263;-75
2021/08/03 21:55:07;;;;;;;7.72;5.30;;;;;;;15.44;67.12;100193.31;10353446;28;20215;-75
2021/08/03 22:00:14;;;;;;;8.18;5.57;;;;;;;15.45;67.16;100191.44;10353503;28;20563;-74
2021/08/03 22:05:17;;;;;;;7.13;5.60;;;;;;;15.45;67.30;100191.44;10334399;28;20229;-75
2021/08/03 22:10:20;;;;;;;5.80;5.05;;;;;;;15.45;66.95;100191.44;10352177;28;20218;-75
2021/08/03 22:15:24;;;;;;;9.40;5.47;;;;;;;15.44;66.76;100192.44;10352206;28;20696;-74
2021/08/03 22:20:27;;;;;;;6.05;4.80;;;;;;;15.41;66.93;100190.91;10351879;28;20195;-74
2021/08/03 22:25:30;;;;;;;7.28;5.13;;;;;;;15.36;67.06;100193.25;10351255;28;20575;-74
2021/08/03 22:30:34;;;;;;;7.30;5.40;;;;;;;15.30;67.80;100190.28;10352045;28;20200;-75
2021/08/03 22:35:37;;;;;;;8.55;5.82;;;;;;;14.99;68.52;100183.50;10351903;28;20559;-74
2021/08/03 22:40:40;;;;;;;7.07;6.38;;;;;;;14.80;69.46;100189.09;10352755;28;20192;-74
2021/08/03 22:45:44;;;;;;;8.73;6.30;;;;;;;14.92;69.63;100189.69;10352197;28;20223;-74
2021/08/03 22:50:47;;;;;;;6.93;5.82;;;;;;;15.04;69.62;100183.88;10352460;28;20234;-74
2021/08/03 22:55:50;;;;;;;8.55;5.72;;;;;;;15.14;69.02;100178.38;10351975;28;20227;-74
2021/08/03 23:00:54;;;;;;;6.88;5.65;;;;;;;15.15;69.10;100174.66;10351702;28;20204;-74
2021/08/03 23:05:57;;;;;;;7.10;5.38;;;;;;;15.15;68.80;100180.06;10350964;28;20215;-74
2021/08/03 23:11:00;;;;;;;9.48;5.63;;;;;;;15.15;68.90;100184.63;10350349;28;20207;-74
2021/08/03 23:16:04;;;;;;;8.60;5.95;;;;;;;15.13;68.62;100182.06;10349844;28;20222;-75
2021/08/03 23:21:08;;;;;;;6.38;5.25;;;;;;;15.13;68.80;100173.13;10349994;28;20195;-74
2021/08/03 23:26:11;;;;;;;6.20;5.38;;;;;;;15.13;68.72;100178.53;10349319;28;20219;-74